sensor_id;sensor_type;location;lat;lon;timestamp;temperature;humidity
15343;DHT22;7771;48.478;8.936;2023-07-31T00:00:01;16.70;99.90
15343;DHT22;7771;48.478;8.936;2023-07-31T00:02:28;16.80;99.90
15343;DHT22;7771;48.478;8.936;2023-07-31T00:04:55;16.70;99.90
15343;DHT22;7771;48.478;8.936;2023-07-31T00:09:49;16.70;99.90
15343;DHT22;7771;48.478;8.936;2023-07-31T00:12:17;16.80;99.90
15343;DHT22;7771;48.478;8.936;2023-07-31T00:14:43;16.80;99.90
15343;DHT22;7771;48.478;8.936;2023-07-31T00:19:39;16.90;99.90
15343;DHT22;7771;48.478;8.936;2023-07-31T00:22:07;16.90;99.90
15343;DHT22;7771;48.478;8.936;2023-07-31T00:24:34;16.80;99.90
15343;DHT22;7771;48.478;8.936;2023-07-31T00:27:01;16.80;99.90
15343;DHT22;7771;48.478;8.936;2023-07-31T00:29:28;16.80;99.90
15343;DHT22;7771;48.478;8.936;2023-07-31T00:36:51;16.70;99.90
15343;DHT22;7771;48.478;8.936;2023-07-31T00:39:18;16.70;99.90
15343;DHT22;7771;48.478;8.936;2023-07-31T00:41:45;16.70;99.90
15343;DHT22;7771;48.478;8.936;2023-07-31T00:44:12;16.70;99.90
15343;DHT22;7771;48.478;8.936;2023-07-31T00:46:39;16.70;99.90
15343;DHT22;7771;48.478;8.936;2023-07-31T00:49:07;16.70;99.90
15343;DHT22;7771;48.478;8.936;2023-07-31T00:51:34;16.70;99.90
15343;DHT22;7771;48.478;8.936;2023-07-31T00:54:01;16.70;99.90
15343;DHT22;7771;48.478;8.936;2023-07-31T00:56:27;16.70;99.90
15343;DHT22;7771;48.478;8.936;2023-07-31T00:58:55;16.60;99.90
15343;DHT22;7771;48.478;8.936;2023-07-31T01:01:21;16.60;99.90
15343;DHT22;7771;48.478;8.936;2023-07-31T01:03:50;16.60;99.90
15343;DHT22;7771;48.478;8.936;2023-07-31T01:06:30;16.60;99.90
15343;DHT22;7771;48.478;8.936;2023-07-31T01:09:19;16.50;99.90
15343;DHT22;7771;48.478;8.936;2023-07-31T01:11:46;16.50;99.90
15343;DHT22;7771;48.478;8.936;2023-07-31T01:14:10;16.40;99.90
15343;DHT22;7771;48.478;8.936;2023-07-31T01:19:05;16.40;99.90
15343;DHT22;7771;48.478;8.936;2023-07-31T01:21:53;16.30;99.90
15343;DHT22;7771;48.478;8.936;2023-07-31T01:26:44;16.20;99.90
15343;DHT22;7771;48.478;8.936;2023-07-31T01:29:12;16.10;99.90
15343;DHT22;7771;48.478;8.936;2023-07-31T01:31:37;16.10;99.90
15343;DHT22;7771;48.478;8.936;2023-07-31T01:34:04;16.10;99.90
15343;DHT22;7771;48.478;8.936;2023-07-31T01:36:31;16.10;99.90
15343;DHT22;7771;48.478;8.936;2023-07-31T01:38:59;16.00;99.90
15343;DHT22;7771;48.478;8.936;2023-07-31T01:41:26;16.00;99.90
15343;DHT22;7771;48.478;8.936;2023-07-31T01:46:41;15.90;99.90
15343;DHT22;7771;48.478;8.936;2023-07-31T01:51:35;15.90;99.90
15343;DHT22;7771;48.478;8.936;2023-07-31T01:54:03;15.90;99.90
15343;DHT22;7771;48.478;8.936;2023-07-31T01:56:30;15.90;99.90
15343;DHT22;7771;48.478;8.936;2023-07-31T01:58:57;15.90;99.90
15343;DHT22;7771;48.478;8.936;2023-07-31T02:01:25;15.90;99.90
15343;DHT22;7771;48.478;8.936;2023-07-31T02:03:53;15.80;99.90
15343;DHT22;7771;48.478;8.936;2023-07-31T02:06:19;15.80;99.90
15343;DHT22;7771;48.478;8.936;2023-07-31T02:11:14;15.70;99.90
15343;DHT22;7771;48.478;8.936;2023-07-31T02:13:42;15.70;99.90
15343;DHT22;7771;48.478;8.936;2023-07-31T02:16:10;15.70;99.90
15343;DHT22;7771;48.478;8.936;2023-07-31T02:18:38;15.70;99.90
15343;DHT22;7771;48.478;8.936;2023-07-31T02:21:04;15.70;99.90
15343;DHT22;7771;48.478;8.936;2023-07-31T02:23:32;15.70;99.90
15343;DHT22;7771;48.478;8.936;2023-07-31T02:26:00;15.70;99.90
15343;DHT22;7771;48.478;8.936;2023-07-31T02:28:26;15.80;99.90
15343;DHT22;7771;48.478;8.936;2023-07-31T02:30:53;15.70;99.90
15343;DHT22;7771;48.478;8.936;2023-07-31T02:35:48;15.80;99.90
15343;DHT22;7771;48.478;8.936;2023-07-31T02:38:15;15.80;99.90
15343;DHT22;7771;48.478;8.936;2023-07-31T02:43:10;15.90;99.90
15343;DHT22;7771;48.478;8.936;2023-07-31T02:45:38;15.90;99.90
15343;DHT22;7771;48.478;8.936;2023-07-31T02:48:05;15.90;99.90
15343;DHT22;7771;48.478;8.936;2023-07-31T02:50:32;15.80;99.90
15343;DHT22;7771;48.478;8.936;2023-07-31T02:53:00;15.80;99.90
15343;DHT22;7771;48.478;8.936;2023-07-31T02:55:27;15.80;99.90
15343;DHT22;7771;48.478;8.936;2023-07-31T02:57:55;15.80;99.90
15343;DHT22;7771;48.478;8.936;2023-07-31T03:00:22;15.80;99.90
15343;DHT22;7771;48.478;8.936;2023-07-31T03:02:50;15.80;99.90
15343;DHT22;7771;48.478;8.936;2023-07-31T03:05:17;15.80;99.90
15343;DHT22;7771;48.478;8.936;2023-07-31T03:07:45;15.80;99.90
15343;DHT22;7771;48.478;8.936;2023-07-31T03:10:12;15.80;99.90
15343;DHT22;7771;48.478;8.936;2023-07-31T03:12:40;15.80;99.90
15343;DHT22;7771;48.478;8.936;2023-07-31T03:15:07;15.80;99.90
15343;DHT22;7771;48.478;8.936;2023-07-31T03:20:03;15.70;99.90
15343;DHT22;7771;48.478;8.936;2023-07-31T03:22:30;15.60;99.90
15343;DHT22;7771;48.478;8.936;2023-07-31T03:24:56;15.60;99.90
15343;DHT22;7771;48.478;8.936;2023-07-31T03:27:23;15.50;99.90
15343;DHT22;7771;48.478;8.936;2023-07-31T03:29:49;15.50;99.90
15343;DHT22;7771;48.478;8.936;2023-07-31T03:32:17;15.50;99.90
15343;DHT22;7771;48.478;8.936;2023-07-31T03:34:44;15.50;99.90
15343;DHT22;7771;48.478;8.936;2023-07-31T03:39:39;15.60;99.90
15343;DHT22;7771;48.478;8.936;2023-07-31T03:44:34;15.60;99.90
15343;DHT22;7771;48.478;8.936;2023-07-31T03:47:01;15.60;99.90
15343;DHT22;7771;48.478;8.936;2023-07-31T03:49:28;15.60;99.90
15343;DHT22;7771;48.478;8.936;2023-07-31T03:51:55;15.50;99.90
15343;DHT22;7771;48.478;8.936;2023-07-31T03:54:22;15.50;99.90
15343;DHT22;7771;48.478;8.936;2023-07-31T03:56:49;15.50;99.90
15343;DHT22;7771;48.478;8.936;2023-07-31T03:59:17;15.40;99.90
15343;DHT22;7771;48.478;8.936;2023-07-31T04:01:44;15.40;99.90
15343;DHT22;7771;48.478;8.936;2023-07-31T04:04:10;15.40;99.90
15343;DHT22;7771;48.478;8.936;2023-07-31T04:06:38;15.40;99.90
15343;DHT22;7771;48.478;8.936;2023-07-31T04:09:04;15.40;99.90
15343;DHT22;7771;48.478;8.936;2023-07-31T04:11:31;15.40;99.90
15343;DHT22;7771;48.478;8.936;2023-07-31T04:13:58;15.40;99.90
15343;DHT22;7771;48.478;8.936;2023-07-31T04:16:24;15.40;99.90
15343;DHT22;7771;48.478;8.936;2023-07-31T04:21:19;15.40;99.90
15343;DHT22;7771;48.478;8.936;2023-07-31T04:23:47;15.30;99.90
15343;DHT22;7771;48.478;8.936;2023-07-31T04:26:14;15.40;99.90
15343;DHT22;7771;48.478;8.936;2023-07-31T04:28:42;15.40;99.90
15343;DHT22;7771;48.478;8.936;2023-07-31T04:31:09;15.30;99.90
15343;DHT22;7771;48.478;8.936;2023-07-31T04:33:35;15.40;99.90
15343;DHT22;7771;48.478;8.936;2023-07-31T04:36:03;15.40;99.90
15343;DHT22;7771;48.478;8.936;2023-07-31T04:38:29;15.50;99.90
15343;DHT22;7771;48.478;8.936;2023-07-31T04:40:57;15.50;99.90
15343;DHT22;7771;48.478;8.936;2023-07-31T04:43:25;15.50;99.90
15343;DHT22;7771;48.478;8.936;2023-07-31T04:45:51;15.60;99.90
15343;DHT22;7771;48.478;8.936;2023-07-31T04:48:18;15.60;99.90
15343;DHT22;7771;48.478;8.936;2023-07-31T04:50:46;15.70;99.90
15343;DHT22;7771;48.478;8.936;2023-07-31T04:53:13;15.70;99.90
15343;DHT22;7771;48.478;8.936;2023-07-31T04:55:41;15.80;99.90
15343;DHT22;7771;48.478;8.936;2023-07-31T04:58:08;15.80;99.90
15343;DHT22;7771;48.478;8.936;2023-07-31T05:00:34;15.80;99.90
15343;DHT22;7771;48.478;8.936;2023-07-31T05:03:02;15.90;99.90
15343;DHT22;7771;48.478;8.936;2023-07-31T05:07:56;16.00;99.90
15343;DHT22;7771;48.478;8.936;2023-07-31T05:10:24;16.00;99.90
15343;DHT22;7771;48.478;8.936;2023-07-31T05:12:50;16.10;99.90
15343;DHT22;7771;48.478;8.936;2023-07-31T05:15:18;16.10;99.90
15343;DHT22;7771;48.478;8.936;2023-07-31T05:17:46;16.20;99.90
15343;DHT22;7771;48.478;8.936;2023-07-31T05:20:14;16.20;99.90
15343;DHT22;7771;48.478;8.936;2023-07-31T05:22:42;16.30;99.90
15343;DHT22;7771;48.478;8.936;2023-07-31T05:25:09;16.30;99.90
15343;DHT22;7771;48.478;8.936;2023-07-31T05:27:35;16.40;99.90
15343;DHT22;7771;48.478;8.936;2023-07-31T05:30:03;16.50;99.90
15343;DHT22;7771;48.478;8.936;2023-07-31T05:32:30;16.60;99.90
15343;DHT22;7771;48.478;8.936;2023-07-31T05:34:57;16.80;99.90
15343;DHT22;7771;48.478;8.936;2023-07-31T05:37:25;16.80;99.90
15343;DHT22;7771;48.478;8.936;2023-07-31T05:39:53;16.90;99.90
15343;DHT22;7771;48.478;8.936;2023-07-31T05:42:20;17.00;99.90
15343;DHT22;7771;48.478;8.936;2023-07-31T05:44:46;17.10;99.90
15343;DHT22;7771;48.478;8.936;2023-07-31T05:47:14;17.20;99.90
15343;DHT22;7771;48.478;8.936;2023-07-31T05:49:42;17.30;99.90
15343;DHT22;7771;48.478;8.936;2023-07-31T05:52:08;17.40;99.90
15343;DHT22;7771;48.478;8.936;2023-07-31T05:54:36;17.50;99.90
15343;DHT22;7771;48.478;8.936;2023-07-31T05:57:04;17.60;99.90
15343;DHT22;7771;48.478;8.936;2023-07-31T05:59:30;17.60;99.90
15343;DHT22;7771;48.478;8.936;2023-07-31T06:01:58;17.70;99.90
15343;DHT22;7771;48.478;8.936;2023-07-31T06:04:24;17.70;99.90
15343;DHT22;7771;48.478;8.936;2023-07-31T06:06:52;17.70;99.90
15343;DHT22;7771;48.478;8.936;2023-07-31T06:09:20;17.80;99.90
15343;DHT22;7771;48.478;8.936;2023-07-31T06:11:48;17.90;99.90
15343;DHT22;7771;48.478;8.936;2023-07-31T06:14:15;18.00;99.90
15343;DHT22;7771;48.478;8.936;2023-07-31T06:16:43;18.10;99.90
15343;DHT22;7771;48.478;8.936;2023-07-31T06:19:09;18.20;99.90
15343;DHT22;7771;48.478;8.936;2023-07-31T06:21:37;18.30;99.90
15343;DHT22;7771;48.478;8.936;2023-07-31T06:24:04;18.30;99.90
15343;DHT22;7771;48.478;8.936;2023-07-31T06:26:31;18.30;99.90
15343;DHT22;7771;48.478;8.936;2023-07-31T06:28:59;18.40;99.90
15343;DHT22;7771;48.478;8.936;2023-07-31T06:31:26;18.40;99.90
15343;DHT22;7771;48.478;8.936;2023-07-31T06:33:53;18.60;99.90
15343;DHT22;7771;48.478;8.936;2023-07-31T06:36:20;18.70;99.90
15343;DHT22;7771;48.478;8.936;2023-07-31T06:38:47;18.90;99.90
15343;DHT22;7771;48.478;8.936;2023-07-31T06:41:15;19.20;99.90
15343;DHT22;7771;48.478;8.936;2023-07-31T06:43:42;19.40;99.90
15343;DHT22;7771;48.478;8.936;2023-07-31T06:46:10;19.60;99.90
15343;DHT22;7771;48.478;8.936;2023-07-31T06:48:36;19.70;99.90
15343;DHT22;7771;48.478;8.936;2023-07-31T06:51:03;19.90;99.90
15343;DHT22;7771;48.478;8.936;2023-07-31T06:53:30;20.00;99.90
15343;DHT22;7771;48.478;8.936;2023-07-31T06:55:57;20.00;99.90
15343;DHT22;7771;48.478;8.936;2023-07-31T07:03:20;20.30;99.90
15343;DHT22;7771;48.478;8.936;2023-07-31T07:05:47;20.50;99.90
15343;DHT22;7771;48.478;8.936;2023-07-31T07:08:13;20.70;99.90
15343;DHT22;7771;48.478;8.936;2023-07-31T07:10:41;21.00;99.90
15343;DHT22;7771;48.478;8.936;2023-07-31T07:13:07;21.30;99.90
15343;DHT22;7771;48.478;8.936;2023-07-31T07:15:35;21.50;99.90
15343;DHT22;7771;48.478;8.936;2023-07-31T07:18:03;21.60;99.90
15343;DHT22;7771;48.478;8.936;2023-07-31T07:20:31;21.60;99.90
15343;DHT22;7771;48.478;8.936;2023-07-31T07:22:57;21.60;99.90
15343;DHT22;7771;48.478;8.936;2023-07-31T07:25:24;21.70;99.90
15343;DHT22;7771;48.478;8.936;2023-07-31T07:27:51;21.90;99.90
15343;DHT22;7771;48.478;8.936;2023-07-31T07:30:18;22.40;99.90
15343;DHT22;7771;48.478;8.936;2023-07-31T07:32:45;22.70;99.90
15343;DHT22;7771;48.478;8.936;2023-07-31T07:35:12;23.00;99.90
15343;DHT22;7771;48.478;8.936;2023-07-31T07:37:38;23.30;99.90
15343;DHT22;7771;48.478;8.936;2023-07-31T07:40:07;23.60;99.80
15343;DHT22;7771;48.478;8.936;2023-07-31T07:42:35;23.80;98.50
15343;DHT22;7771;48.478;8.936;2023-07-31T07:45:03;24.10;97.80
15343;DHT22;7771;48.478;8.936;2023-07-31T07:47:29;24.50;97.50
15343;DHT22;7771;48.478;8.936;2023-07-31T07:49:57;24.90;96.20
15343;DHT22;7771;48.478;8.936;2023-07-31T07:52:24;25.50;94.40
15343;DHT22;7771;48.478;8.936;2023-07-31T07:57:19;26.80;92.00
15343;DHT22;7771;48.478;8.936;2023-07-31T07:59:46;27.70;90.50
15343;DHT22;7771;48.478;8.936;2023-07-31T08:02:13;28.50;88.50
15343;DHT22;7771;48.478;8.936;2023-07-31T08:04:40;29.30;85.00
15343;DHT22;7771;48.478;8.936;2023-07-31T08:07:07;29.50;83.20
15343;DHT22;7771;48.478;8.936;2023-07-31T08:09:35;29.40;81.30
15343;DHT22;7771;48.478;8.936;2023-07-31T08:12:01;29.10;82.10
15343;DHT22;7771;48.478;8.936;2023-07-31T08:14:28;28.70;81.90
15343;DHT22;7771;48.478;8.936;2023-07-31T08:16:56;28.20;81.60
15343;DHT22;7771;48.478;8.936;2023-07-31T08:19:23;27.80;82.80
15343;DHT22;7771;48.478;8.936;2023-07-31T08:21:50;27.60;83.10
15343;DHT22;7771;48.478;8.936;2023-07-31T08:24:16;27.40;83.80
15343;DHT22;7771;48.478;8.936;2023-07-31T08:26:43;27.40;84.50
15343;DHT22;7771;48.478;8.936;2023-07-31T08:29:10;27.40;83.70
15343;DHT22;7771;48.478;8.936;2023-07-31T08:31:36;27.40;83.90
15343;DHT22;7771;48.478;8.936;2023-07-31T08:34:03;27.40;83.80
15343;DHT22;7771;48.478;8.936;2023-07-31T08:36:30;27.40;83.60
15343;DHT22;7771;48.478;8.936;2023-07-31T08:38:58;27.40;83.30
15343;DHT22;7771;48.478;8.936;2023-07-31T08:41:24;27.20;82.30
15343;DHT22;7771;48.478;8.936;2023-07-31T08:43:52;26.80;82.60
15343;DHT22;7771;48.478;8.936;2023-07-31T08:46:18;26.60;84.20
15343;DHT22;7771;48.478;8.936;2023-07-31T08:48:45;26.50;84.70
15343;DHT22;7771;48.478;8.936;2023-07-31T08:51:13;26.50;84.80
15343;DHT22;7771;48.478;8.936;2023-07-31T08:53:39;26.60;85.10
15343;DHT22;7771;48.478;8.936;2023-07-31T08:56:06;26.70;84.80
15343;DHT22;7771;48.478;8.936;2023-07-31T08:58:33;26.90;84.50
15343;DHT22;7771;48.478;8.936;2023-07-31T09:01:03;27.00;84.30
15343;DHT22;7771;48.478;8.936;2023-07-31T09:03:29;27.10;83.40
15343;DHT22;7771;48.478;8.936;2023-07-31T09:05:56;27.10;82.50
15343;DHT22;7771;48.478;8.936;2023-07-31T09:08:23;27.00;83.80
15343;DHT22;7771;48.478;8.936;2023-07-31T09:10:49;27.10;83.10
15343;DHT22;7771;48.478;8.936;2023-07-31T09:13:17;27.10;83.50
15343;DHT22;7771;48.478;8.936;2023-07-31T09:15:44;27.10;84.20
15343;DHT22;7771;48.478;8.936;2023-07-31T09:18:10;27.10;83.60
15343;DHT22;7771;48.478;8.936;2023-07-31T09:20:37;27.00;83.80
15343;DHT22;7771;48.478;8.936;2023-07-31T09:23:08;27.00;83.60
15343;DHT22;7771;48.478;8.936;2023-07-31T09:28:03;26.70;83.60
15343;DHT22;7771;48.478;8.936;2023-07-31T09:30:30;26.70;83.80
15343;DHT22;7771;48.478;8.936;2023-07-31T09:33:02;26.60;84.00
15343;DHT22;7771;48.478;8.936;2023-07-31T09:35:28;26.50;83.40
15343;DHT22;7771;48.478;8.936;2023-07-31T09:37:59;26.40;82.50
15343;DHT22;7771;48.478;8.936;2023-07-31T09:40:26;26.40;83.20
15343;DHT22;7771;48.478;8.936;2023-07-31T09:42:53;26.30;82.80
15343;DHT22;7771;48.478;8.936;2023-07-31T09:45:20;26.20;84.20
15343;DHT22;7771;48.478;8.936;2023-07-31T09:47:47;26.30;84.30
15343;DHT22;7771;48.478;8.936;2023-07-31T09:50:15;26.40;84.00
15343;DHT22;7771;48.478;8.936;2023-07-31T09:52:41;26.60;82.80
15343;DHT22;7771;48.478;8.936;2023-07-31T09:55:09;26.80;82.80
15343;DHT22;7771;48.478;8.936;2023-07-31T09:57:41;26.90;83.00
15343;DHT22;7771;48.478;8.936;2023-07-31T10:00:10;27.00;82.50
15343;DHT22;7771;48.478;8.936;2023-07-31T10:02:36;26.90;82.90
15343;DHT22;7771;48.478;8.936;2023-07-31T10:05:04;26.90;82.20
15343;DHT22;7771;48.478;8.936;2023-07-31T10:07:31;26.90;82.00
15343;DHT22;7771;48.478;8.936;2023-07-31T10:09:58;26.90;82.10
15343;DHT22;7771;48.478;8.936;2023-07-31T10:12:25;27.00;82.50
15343;DHT22;7771;48.478;8.936;2023-07-31T10:14:51;27.10;82.20
15343;DHT22;7771;48.478;8.936;2023-07-31T10:19:47;27.00;82.50
15343;DHT22;7771;48.478;8.936;2023-07-31T10:22:14;27.10;81.80
15343;DHT22;7771;48.478;8.936;2023-07-31T10:24:41;27.10;81.30
15343;DHT22;7771;48.478;8.936;2023-07-31T10:27:08;27.10;80.80
15343;DHT22;7771;48.478;8.936;2023-07-31T10:29:35;27.20;81.00
15343;DHT22;7771;48.478;8.936;2023-07-31T10:32:02;27.20;80.80
15343;DHT22;7771;48.478;8.936;2023-07-31T10:37:22;27.40;80.30
15343;DHT22;7771;48.478;8.936;2023-07-31T10:40:03;27.30;81.00
15343;DHT22;7771;48.478;8.936;2023-07-31T10:42:35;27.30;80.70
15343;DHT22;7771;48.478;8.936;2023-07-31T10:45:03;27.30;81.00
15343;DHT22;7771;48.478;8.936;2023-07-31T10:47:28;27.40;80.10
15343;DHT22;7771;48.478;8.936;2023-07-31T10:52:33;27.40;80.10
15343;DHT22;7771;48.478;8.936;2023-07-31T10:57:34;27.40;80.00
15343;DHT22;7771;48.478;8.936;2023-07-31T11:00:18;27.40;80.30
15343;DHT22;7771;48.478;8.936;2023-07-31T11:03:02;27.50;79.70
15343;DHT22;7771;48.478;8.936;2023-07-31T11:05:40;27.50;79.50
15343;DHT22;7771;48.478;8.936;2023-07-31T11:08:13;27.60;78.80
15343;DHT22;7771;48.478;8.936;2023-07-31T11:10:40;27.60;79.30
15343;DHT22;7771;48.478;8.936;2023-07-31T11:13:08;27.60;79.90
15343;DHT22;7771;48.478;8.936;2023-07-31T11:15:35;27.60;79.90
15343;DHT22;7771;48.478;8.936;2023-07-31T11:18:02;27.70;79.20
15343;DHT22;7771;48.478;8.936;2023-07-31T11:20:30;27.60;78.60
15343;DHT22;7771;48.478;8.936;2023-07-31T11:23:02;27.50;79.40
15343;DHT22;7771;48.478;8.936;2023-07-31T11:25:29;27.50;79.80
15343;DHT22;7771;48.478;8.936;2023-07-31T11:27:56;27.50;79.10
15343;DHT22;7771;48.478;8.936;2023-07-31T11:30:23;27.60;80.00
15343;DHT22;7771;48.478;8.936;2023-07-31T11:32:51;27.80;80.40
15343;DHT22;7771;48.478;8.936;2023-07-31T11:35:19;27.90;80.30
15343;DHT22;7771;48.478;8.936;2023-07-31T11:37:46;28.10;78.90
15343;DHT22;7771;48.478;8.936;2023-07-31T11:40:13;28.20;79.60
15343;DHT22;7771;48.478;8.936;2023-07-31T11:45:09;28.30;77.80
15343;DHT22;7771;48.478;8.936;2023-07-31T11:47:36;28.20;77.20
15343;DHT22;7771;48.478;8.936;2023-07-31T11:50:05;28.00;77.80
15343;DHT22;7771;48.478;8.936;2023-07-31T11:52:32;27.80;79.00
15343;DHT22;7771;48.478;8.936;2023-07-31T11:54:58;27.60;78.60
15343;DHT22;7771;48.478;8.936;2023-07-31T11:57:25;27.40;79.00
15343;DHT22;7771;48.478;8.936;2023-07-31T11:59:51;27.20;79.30
15343;DHT22;7771;48.478;8.936;2023-07-31T12:02:19;27.00;80.00
15343;DHT22;7771;48.478;8.936;2023-07-31T12:04:46;26.90;80.60
15343;DHT22;7771;48.478;8.936;2023-07-31T12:09:50;26.80;85.30
15343;DHT22;7771;48.478;8.936;2023-07-31T12:12:19;26.80;87.60
15343;DHT22;7771;48.478;8.936;2023-07-31T12:14:44;26.80;87.40
15343;DHT22;7771;48.478;8.936;2023-07-31T12:19:39;26.80;85.00
15343;DHT22;7771;48.478;8.936;2023-07-31T12:22:12;26.80;85.00
15343;DHT22;7771;48.478;8.936;2023-07-31T12:24:39;26.90;84.80
15343;DHT22;7771;48.478;8.936;2023-07-31T12:27:09;26.90;84.90
15343;DHT22;7771;48.478;8.936;2023-07-31T12:29:35;27.00;85.30
15343;DHT22;7771;48.478;8.936;2023-07-31T12:32:02;27.10;84.30
15343;DHT22;7771;48.478;8.936;2023-07-31T12:36:57;27.10;83.60
15343;DHT22;7771;48.478;8.936;2023-07-31T12:39:24;27.20;82.20
15343;DHT22;7771;48.478;8.936;2023-07-31T12:41:51;27.30;81.70
15343;DHT22;7771;48.478;8.936;2023-07-31T12:44:19;27.50;81.60
15343;DHT22;7771;48.478;8.936;2023-07-31T12:46:45;27.60;81.60
15343;DHT22;7771;48.478;8.936;2023-07-31T12:49:12;27.70;80.00
15343;DHT22;7771;48.478;8.936;2023-07-31T12:51:39;27.70;79.10
15343;DHT22;7771;48.478;8.936;2023-07-31T12:54:06;27.70;79.10
15343;DHT22;7771;48.478;8.936;2023-07-31T12:56:33;27.70;78.90
15343;DHT22;7771;48.478;8.936;2023-07-31T12:59:00;27.70;78.90
15343;DHT22;7771;48.478;8.936;2023-07-31T13:01:27;27.70;78.80
15343;DHT22;7771;48.478;8.936;2023-07-31T13:03:55;27.70;79.60
15343;DHT22;7771;48.478;8.936;2023-07-31T13:06:22;27.70;78.90
15343;DHT22;7771;48.478;8.936;2023-07-31T13:08:50;27.70;78.50
15343;DHT22;7771;48.478;8.936;2023-07-31T13:11:17;27.60;78.80
15343;DHT22;7771;48.478;8.936;2023-07-31T13:13:44;27.60;78.30
15343;DHT22;7771;48.478;8.936;2023-07-31T13:16:11;27.40;78.60
15343;DHT22;7771;48.478;8.936;2023-07-31T13:18:39;27.30;79.30
15343;DHT22;7771;48.478;8.936;2023-07-31T13:23:53;26.90;80.20
15343;DHT22;7771;48.478;8.936;2023-07-31T13:26:19;26.70;81.60
15343;DHT22;7771;48.478;8.936;2023-07-31T13:31:15;26.40;82.70
15343;DHT22;7771;48.478;8.936;2023-07-31T13:33:41;26.20;82.80
15343;DHT22;7771;48.478;8.936;2023-07-31T13:36:08;26.10;83.40
15343;DHT22;7771;48.478;8.936;2023-07-31T13:38:35;25.90;84.40
15343;DHT22;7771;48.478;8.936;2023-07-31T13:41:03;25.70;84.20
15343;DHT22;7771;48.478;8.936;2023-07-31T13:43:31;25.60;84.40
15343;DHT22;7771;48.478;8.936;2023-07-31T13:45:57;25.50;84.90
15343;DHT22;7771;48.478;8.936;2023-07-31T13:48:24;25.40;85.70
15343;DHT22;7771;48.478;8.936;2023-07-31T13:50:51;25.40;86.60
15343;DHT22;7771;48.478;8.936;2023-07-31T13:53:18;25.40;86.60
15343;DHT22;7771;48.478;8.936;2023-07-31T13:55:45;25.40;86.20
15343;DHT22;7771;48.478;8.936;2023-07-31T13:58:13;25.30;86.60
15343;DHT22;7771;48.478;8.936;2023-07-31T14:00:40;25.30;86.10
15343;DHT22;7771;48.478;8.936;2023-07-31T14:03:08;25.10;86.20
15343;DHT22;7771;48.478;8.936;2023-07-31T14:05:35;25.20;86.10
15343;DHT22;7771;48.478;8.936;2023-07-31T14:08:02;25.20;86.40
15343;DHT22;7771;48.478;8.936;2023-07-31T14:10:28;25.10;86.60
15343;DHT22;7771;48.478;8.936;2023-07-31T14:12:56;25.10;86.80
15343;DHT22;7771;48.478;8.936;2023-07-31T14:15:23;25.10;87.10
15343;DHT22;7771;48.478;8.936;2023-07-31T14:17:51;25.10;87.40
15343;DHT22;7771;48.478;8.936;2023-07-31T14:25:15;25.00;87.90
15343;DHT22;7771;48.478;8.936;2023-07-31T14:27:41;25.00;87.70
15343;DHT22;7771;48.478;8.936;2023-07-31T14:30:09;25.00;87.60
15343;DHT22;7771;48.478;8.936;2023-07-31T14:32:35;25.00;87.60
15343;DHT22;7771;48.478;8.936;2023-07-31T14:37:37;25.00;88.00
15343;DHT22;7771;48.478;8.936;2023-07-31T14:40:03;25.00;88.00
15343;DHT22;7771;48.478;8.936;2023-07-31T14:42:31;25.00;88.00
15343;DHT22;7771;48.478;8.936;2023-07-31T14:44:59;25.00;87.90
15343;DHT22;7771;48.478;8.936;2023-07-31T14:47:26;25.10;87.80
15343;DHT22;7771;48.478;8.936;2023-07-31T14:52:21;25.10;88.10
15343;DHT22;7771;48.478;8.936;2023-07-31T14:54:50;25.00;88.20
15343;DHT22;7771;48.478;8.936;2023-07-31T14:57:18;25.00;88.40
15343;DHT22;7771;48.478;8.936;2023-07-31T14:59:46;25.00;88.70
15343;DHT22;7771;48.478;8.936;2023-07-31T15:02:12;25.00;89.10
15343;DHT22;7771;48.478;8.936;2023-07-31T15:04:40;25.00;89.10
15343;DHT22;7771;48.478;8.936;2023-07-31T15:07:07;25.10;89.00
15343;DHT22;7771;48.478;8.936;2023-07-31T15:12:03;25.10;89.70
15343;DHT22;7771;48.478;8.936;2023-07-31T15:14:31;25.10;89.50
15343;DHT22;7771;48.478;8.936;2023-07-31T15:16:58;25.10;89.40
15343;DHT22;7771;48.478;8.936;2023-07-31T15:19:24;25.10;89.50
15343;DHT22;7771;48.478;8.936;2023-07-31T15:21:51;25.10;89.00
15343;DHT22;7771;48.478;8.936;2023-07-31T15:24:19;25.00;89.10
15343;DHT22;7771;48.478;8.936;2023-07-31T15:26:45;25.00;89.60
15343;DHT22;7771;48.478;8.936;2023-07-31T15:29:12;25.00;90.00
15343;DHT22;7771;48.478;8.936;2023-07-31T15:31:39;25.00;89.60
15343;DHT22;7771;48.478;8.936;2023-07-31T15:34:07;25.00;89.80
15343;DHT22;7771;48.478;8.936;2023-07-31T15:39:19;25.00;90.10
15343;DHT22;7771;48.478;8.936;2023-07-31T15:41:47;25.00;90.30
15343;DHT22;7771;48.478;8.936;2023-07-31T15:46:42;25.10;90.10
15343;DHT22;7771;48.478;8.936;2023-07-31T15:51:38;25.20;90.30
15343;DHT22;7771;48.478;8.936;2023-07-31T15:54:06;25.10;90.00
15343;DHT22;7771;48.478;8.936;2023-07-31T15:59:02;25.20;89.50
15343;DHT22;7771;48.478;8.936;2023-07-31T16:01:29;25.20;89.50
15343;DHT22;7771;48.478;8.936;2023-07-31T16:03:56;25.20;89.50
15343;DHT22;7771;48.478;8.936;2023-07-31T16:06:23;25.20;89.50
15343;DHT22;7771;48.478;8.936;2023-07-31T16:08:50;25.20;89.80
15343;DHT22;7771;48.478;8.936;2023-07-31T16:11:18;25.30;89.40
15343;DHT22;7771;48.478;8.936;2023-07-31T16:13:45;25.30;89.40
15343;DHT22;7771;48.478;8.936;2023-07-31T16:16:12;25.40;89.30
15343;DHT22;7771;48.478;8.936;2023-07-31T16:18:39;25.40;89.60
15343;DHT22;7771;48.478;8.936;2023-07-31T16:23:35;25.60;89.30
15343;DHT22;7771;48.478;8.936;2023-07-31T16:26:01;25.60;88.60
15343;DHT22;7771;48.478;8.936;2023-07-31T16:28:28;25.60;89.10
15343;DHT22;7771;48.478;8.936;2023-07-31T16:30:55;25.60;88.30
15343;DHT22;7771;48.478;8.936;2023-07-31T16:33:22;25.70;87.90
15343;DHT22;7771;48.478;8.936;2023-07-31T16:35:49;25.60;88.20
15343;DHT22;7771;48.478;8.936;2023-07-31T16:38:16;25.60;88.30
15343;DHT22;7771;48.478;8.936;2023-07-31T16:43:12;25.40;88.60
15343;DHT22;7771;48.478;8.936;2023-07-31T16:45:38;25.40;88.50
15343;DHT22;7771;48.478;8.936;2023-07-31T16:48:06;25.30;89.00
15343;DHT22;7771;48.478;8.936;2023-07-31T16:50:33;25.30;89.30
15343;DHT22;7771;48.478;8.936;2023-07-31T16:52:59;25.30;89.70
15343;DHT22;7771;48.478;8.936;2023-07-31T16:55:26;25.20;90.10
15343;DHT22;7771;48.478;8.936;2023-07-31T17:00:22;25.10;90.20
15343;DHT22;7771;48.478;8.936;2023-07-31T17:02:49;25.00;90.30
15343;DHT22;7771;48.478;8.936;2023-07-31T17:05:15;25.10;90.50
15343;DHT22;7771;48.478;8.936;2023-07-31T17:07:43;25.00;90.50
15343;DHT22;7771;48.478;8.936;2023-07-31T17:10:11;25.00;90.60
15343;DHT22;7771;48.478;8.936;2023-07-31T17:12:39;25.00;90.50
15343;DHT22;7771;48.478;8.936;2023-07-31T17:15:07;24.90;90.60
15343;DHT22;7771;48.478;8.936;2023-07-31T17:17:35;24.90;90.60
15343;DHT22;7771;48.478;8.936;2023-07-31T17:20:01;24.90;90.70
15343;DHT22;7771;48.478;8.936;2023-07-31T17:22:28;24.80;90.90
15343;DHT22;7771;48.478;8.936;2023-07-31T17:24:55;24.90;91.00
15343;DHT22;7771;48.478;8.936;2023-07-31T17:27:22;24.90;91.00
15343;DHT22;7771;48.478;8.936;2023-07-31T17:29:49;24.90;91.10